WAT375 KIAD-KHSV
Flight info
| Callsign | WAT375 |
|---|---|
| Flight time | 1h 25m |
| Altitude | 38000 |
| Route | CLTCH3 MAULS Q40 ALEAN VXV RQZ |
| Aircraft | B738/M-SDE2E3FGHIRWXY/LB1 |
Departure
| Time | 2026-04-21 20:58 |
|---|---|
| Airport | Washington Dulles International Airport (KIAD) |
Arrival
| Time | 2026-04-21 22:24 |
|---|---|
| Airport | Huntsville International Airport (KHSV) |
| Time | Latitude | Longitude | Altitude | Speed | Heading |
|---|---|---|---|---|---|
| 2026-04-21 20:28 | 38.94823 | -77.45380 | 292 ft | 0 kts | 6° |
| 2026-04-21 20:50 | 38.94818 | -77.45381 | 292 ft | 1 kts | 3° |
| 2026-04-21 20:50 | 38.94803 | -77.45381 | 292 ft | 2 kts | 351° |
| 2026-04-21 20:51 | 38.94788 | -77.45375 | 292 ft | 2 kts | 336° |
| 2026-04-21 20:51 | 38.94774 | -77.45365 | 293 ft | 2 kts | 321° |
| 2026-04-21 20:51 | 38.94763 | -77.45350 | 293 ft | 2 kts | 305° |
| 2026-04-21 20:51 | 38.94759 | -77.45341 | 293 ft | 1 kts | 296° |
| 2026-04-21 20:52 | 38.94757 | -77.45337 | 293 ft | 0 kts | 297° |
| 2026-04-21 20:53 | 38.94754 | -77.45354 | 293 ft | 2 kts | 252° |
| 2026-04-21 20:53 | 38.94750 | -77.45375 | 293 ft | 3 kts | 253° |
| 2026-04-21 20:54 | 38.94735 | -77.45467 | 292 ft | 14 kts | 265° |
| 2026-04-21 20:54 | 38.94713 | -77.45592 | 291 ft | 12 kts | 221° |
| 2026-04-21 20:54 | 38.94639 | -77.45608 | 292 ft | 8 kts | 180° |
| 2026-04-21 20:54 | 38.94549 | -77.45609 | 293 ft | 17 kts | 181° |
| 2026-04-21 20:55 | 38.94422 | -77.45612 | 293 ft | 15 kts | 180° |
| 2026-04-21 20:55 | 38.94316 | -77.45613 | 295 ft | 16 kts | 181° |
| 2026-04-21 20:55 | 38.94193 | -77.45615 | 295 ft | 15 kts | 180° |
| 2026-04-21 20:55 | 38.94069 | -77.45617 | 294 ft | 20 kts | 181° |
| 2026-04-21 20:56 | 38.93905 | -77.45618 | 291 ft | 22 kts | 181° |
| 2026-04-21 20:56 | 38.93747 | -77.45620 | 290 ft | 18 kts | 178° |
| 2026-04-21 20:56 | 38.93648 | -77.45528 | 288 ft | 15 kts | 134° |
| 2026-04-21 20:56 | 38.93549 | -77.45516 | 286 ft | 14 kts | 199° |
| 2026-04-21 20:57 | 38.93453 | -77.45559 | 284 ft | 13 kts | 200° |
| 2026-04-21 20:57 | 38.93372 | -77.45605 | 282 ft | 7 kts | 242° |
| 2026-04-21 20:57 | 38.93384 | -77.45667 | 283 ft | 6 kts | 291° |
| 2026-04-21 20:57 | 38.93468 | -77.45946 | 287 ft | 70 kts | 291° |
| 2026-04-21 20:58 | 38.93747 | -77.46888 | 295 ft | 140 kts | 292° |
| 2026-04-21 20:58 | 38.94176 | -77.48284 | 604 ft | 172 kts | 294° |
| 2026-04-21 20:58 | 38.94646 | -77.49828 | 1198 ft | 190 kts | 294° |
| 2026-04-21 20:58 | 38.95195 | -77.51613 | 1740 ft | 216 kts | 293° |
| 2026-04-21 20:59 | 38.95644 | -77.53659 | 2356 ft | 240 kts | 275° |
| 2026-04-21 20:59 | 38.95219 | -77.55875 | 3211 ft | 253 kts | 238° |
| 2026-04-21 20:59 | 38.93800 | -77.57367 | 4209 ft | 261 kts | 205° |
| 2026-04-21 20:59 | 38.92039 | -77.58227 | 5214 ft | 264 kts | 205° |
| 2026-04-21 21:00 | 38.90307 | -77.59206 | 6210 ft | 265 kts | 206° |
| 2026-04-21 21:00 | 38.88525 | -77.60196 | 7038 ft | 274 kts | 206° |
| 2026-04-21 21:00 | 38.86673 | -77.61195 | 7955 ft | 278 kts | 206° |
| 2026-04-21 21:00 | 38.84775 | -77.62216 | 8805 ft | 284 kts | 207° |
| 2026-04-21 21:01 | 38.82831 | -77.63261 | 9617 ft | 291 kts | 207° |
| 2026-04-21 21:01 | 38.80868 | -77.64317 | 10301 ft | 301 kts | 208° |
| 2026-04-21 21:01 | 38.78761 | -77.65463 | 10532 ft | 328 kts | 208° |
| 2026-04-21 21:01 | 38.76480 | -77.66705 | 11090 ft | 342 kts | 208° |
| 2026-04-21 21:02 | 38.74126 | -77.67969 | 11713 ft | 354 kts | 208° |
| 2026-04-21 21:02 | 38.71727 | -77.69240 | 12488 ft | 360 kts | 208° |
| 2026-04-21 21:02 | 38.69291 | -77.70549 | 13312 ft | 365 kts | 209° |
| 2026-04-21 21:02 | 38.66801 | -77.71896 | 14122 ft | 370 kts | 209° |
| 2026-04-21 21:03 | 38.64312 | -77.73229 | 14928 ft | 374 kts | 208° |
| 2026-04-21 21:03 | 38.61735 | -77.74606 | 15739 ft | 378 kts | 208° |
| 2026-04-21 21:03 | 38.59174 | -77.75978 | 16505 ft | 383 kts | 208° |
| 2026-04-21 21:03 | 38.56603 | -77.77360 | 17249 ft | 387 kts | 209° |
| 2026-04-21 21:04 | 38.54091 | -77.78957 | 17944 ft | 386 kts | 217° |
| 2026-04-21 21:04 | 38.51792 | -77.81009 | 18651 ft | 382 kts | 227° |
| 2026-04-21 21:04 | 38.49839 | -77.83482 | 19338 ft | 379 kts | 235° |
| 2026-04-21 21:04 | 38.48013 | -77.86094 | 19999 ft | 383 kts | 235° |
| 2026-04-21 21:05 | 38.46137 | -77.88730 | 20626 ft | 387 kts | 234° |
| 2026-04-21 21:05 | 38.44295 | -77.91436 | 21237 ft | 387 kts | 239° |
| 2026-04-21 21:05 | 38.42677 | -77.94321 | 21839 ft | 387 kts | 243° |
| 2026-04-21 21:05 | 38.41078 | -77.97272 | 22416 ft | 391 kts | 242° |
| 2026-04-21 21:06 | 38.39423 | -78.00247 | 23001 ft | 394 kts | 242° |
| 2026-04-21 21:06 | 38.37759 | -78.03229 | 23554 ft | 397 kts | 242° |
| 2026-04-21 21:06 | 38.36089 | -78.06238 | 24082 ft | 400 kts | 242° |
| 2026-04-21 21:06 | 38.34418 | -78.09247 | 24587 ft | 404 kts | 242° |
| 2026-04-21 21:07 | 38.32752 | -78.12238 | 25071 ft | 407 kts | 242° |
| 2026-04-21 21:07 | 38.31050 | -78.15292 | 25539 ft | 410 kts | 242° |
| 2026-04-21 21:07 | 38.29329 | -78.18382 | 25989 ft | 413 kts | 242° |
| 2026-04-21 21:07 | 38.27578 | -78.21521 | 26446 ft | 416 kts | 242° |
| 2026-04-21 21:08 | 38.25822 | -78.24663 | 26873 ft | 419 kts | 242° |
| 2026-04-21 21:08 | 38.24095 | -78.27755 | 27075 ft | 423 kts | 242° |
| 2026-04-21 21:08 | 38.22315 | -78.30942 | 27614 ft | 422 kts | 242° |
| 2026-04-21 21:08 | 38.20535 | -78.34122 | 28006 ft | 425 kts | 242° |
| 2026-04-21 21:09 | 38.18806 | -78.37398 | 28409 ft | 424 kts | 245° |
| 2026-04-21 21:09 | 38.17327 | -78.40821 | 28784 ft | 420 kts | 253° |
| 2026-04-21 21:09 | 38.16136 | -78.44466 | 29193 ft | 419 kts | 256° |
| 2026-04-21 21:09 | 38.15006 | -78.48080 | 29546 ft | 422 kts | 255° |
| 2026-04-21 21:10 | 38.13859 | -78.51651 | 29901 ft | 424 kts | 255° |
| 2026-04-21 21:10 | 38.12680 | -78.55325 | 30254 ft | 426 kts | 255° |
| 2026-04-21 21:10 | 38.11508 | -78.59029 | 30581 ft | 428 kts | 255° |
| 2026-04-21 21:10 | 38.10338 | -78.62760 | 30880 ft | 430 kts | 255° |
| 2026-04-21 21:11 | 38.09172 | -78.66484 | 31289 ft | 430 kts | 255° |
| 2026-04-21 21:11 | 38.07998 | -78.70195 | 31844 ft | 426 kts | 255° |
| 2026-04-21 21:11 | 38.06828 | -78.73895 | 32239 ft | 427 kts | 255° |
| 2026-04-21 21:11 | 38.05672 | -78.77563 | 32678 ft | 425 kts | 255° |
| 2026-04-21 21:12 | 38.04522 | -78.81207 | 33084 ft | 423 kts | 255° |
| 2026-04-21 21:12 | 38.03367 | -78.84865 | 33435 ft | 423 kts | 255° |
| 2026-04-21 21:12 | 38.02217 | -78.88509 | 33852 ft | 422 kts | 255° |
| 2026-04-21 21:12 | 38.01070 | -78.92136 | 34207 ft | 422 kts | 255° |
| 2026-04-21 21:13 | 37.99934 | -78.95719 | 34622 ft | 420 kts | 255° |
| 2026-04-21 21:13 | 37.98787 | -78.99327 | 35056 ft | 417 kts | 255° |
| 2026-04-21 21:13 | 37.97657 | -79.02881 | 35470 ft | 415 kts | 255° |
| 2026-04-21 21:13 | 37.96554 | -79.06364 | 35883 ft | 412 kts | 255° |
| 2026-04-21 21:14 | 37.95449 | -79.09853 | 36252 ft | 410 kts | 255° |
| 2026-04-21 21:14 | 37.94340 | -79.13336 | 36565 ft | 410 kts | 255° |
| 2026-04-21 21:14 | 37.93218 | -79.16840 | 36874 ft | 410 kts | 255° |
| 2026-04-21 21:14 | 37.92111 | -79.20300 | 37161 ft | 409 kts | 255° |
| 2026-04-21 21:15 | 37.91007 | -79.23768 | 37441 ft | 409 kts | 255° |
| 2026-04-21 21:15 | 37.89899 | -79.27241 | 37719 ft | 409 kts | 255° |
| 2026-04-21 21:15 | 37.88757 | -79.30727 | 37968 ft | 410 kts | 252° |
| 2026-04-21 21:15 | 37.87367 | -79.34107 | 38198 ft | 415 kts | 246° |
| 2026-04-21 21:16 | 37.84097 | -79.40597 | 38259 ft | 420 kts | 244° |
| 2026-04-21 21:16 | 37.80846 | -79.47157 | 38265 ft | 415 kts | 245° |
| 2026-04-21 21:17 | 37.77610 | -79.53583 | 38271 ft | 415 kts | 244° |
| 2026-04-21 21:17 | 37.74316 | -79.60091 | 38274 ft | 417 kts | 244° |
| 2026-04-21 21:18 | 37.71057 | -79.66503 | 38274 ft | 417 kts | 244° |
| 2026-04-21 21:18 | 37.67760 | -79.72978 | 38274 ft | 418 kts | 244° |
| 2026-04-21 21:19 | 37.64431 | -79.79492 | 38274 ft | 418 kts | 244° |
| 2026-04-21 21:19 | 37.61065 | -79.86063 | 38274 ft | 417 kts | 244° |
| 2026-04-21 21:20 | 37.57653 | -79.92709 | 38274 ft | 417 kts | 244° |
| 2026-04-21 21:20 | 37.54278 | -79.99271 | 38274 ft | 417 kts | 244° |
| 2026-04-21 21:21 | 37.50917 | -80.05794 | 38274 ft | 416 kts | 244° |
| 2026-04-21 21:21 | 37.47583 | -80.12254 | 38274 ft | 415 kts | 244° |
| 2026-04-21 21:22 | 37.44220 | -80.18751 | 38274 ft | 414 kts | 244° |
| 2026-04-21 21:22 | 37.40886 | -80.25185 | 38274 ft | 414 kts | 244° |
| 2026-04-21 21:23 | 37.37555 | -80.31597 | 38274 ft | 414 kts | 244° |
| 2026-04-21 21:23 | 37.34198 | -80.38051 | 38274 ft | 414 kts | 244° |
| 2026-04-21 21:24 | 37.30857 | -80.44460 | 38274 ft | 412 kts | 244° |
| 2026-04-21 21:24 | 37.27553 | -80.50784 | 38274 ft | 412 kts | 244° |
| 2026-04-21 21:25 | 37.24450 | -80.57160 | 38273 ft | 409 kts | 247° |
| 2026-04-21 21:25 | 37.21395 | -80.63587 | 38270 ft | 409 kts | 246° |
| 2026-04-21 21:26 | 37.18321 | -80.69978 | 38269 ft | 410 kts | 245° |
| 2026-04-21 21:26 | 37.15246 | -80.76363 | 38267 ft | 411 kts | 245° |
| 2026-04-21 21:27 | 37.12149 | -80.82777 | 38227 ft | 410 kts | 245° |
| 2026-04-21 21:27 | 37.09097 | -80.89082 | 38235 ft | 408 kts | 246° |
| 2026-04-21 21:28 | 37.06034 | -80.95401 | 38248 ft | 408 kts | 246° |
| 2026-04-21 21:29 | 37.01411 | -81.04911 | 38266 ft | 408 kts | 245° |
| 2026-04-21 21:29 | 36.98336 | -81.11223 | 38276 ft | 408 kts | 245° |
| 2026-04-21 21:30 | 36.95224 | -81.17598 | 38283 ft | 408 kts | 245° |
| 2026-04-21 21:30 | 36.92178 | -81.23827 | 38283 ft | 408 kts | 245° |
| 2026-04-21 21:31 | 36.89133 | -81.30040 | 38283 ft | 407 kts | 245° |
| 2026-04-21 21:31 | 36.86092 | -81.36232 | 38283 ft | 406 kts | 246° |
| 2026-04-21 21:32 | 36.82995 | -81.42529 | 38283 ft | 407 kts | 246° |
| 2026-04-21 21:32 | 36.79879 | -81.48852 | 38283 ft | 405 kts | 246° |
| 2026-04-21 21:33 | 36.76761 | -81.55168 | 38274 ft | 405 kts | 246° |
| 2026-04-21 21:33 | 36.73645 | -81.61516 | 38273 ft | 403 kts | 248° |
| 2026-04-21 21:34 | 36.71198 | -81.68107 | 38274 ft | 397 kts | 253° |
| 2026-04-21 21:34 | 36.68843 | -81.74805 | 38274 ft | 398 kts | 252° |
| 2026-04-21 21:35 | 36.66457 | -81.81531 | 38274 ft | 398 kts | 252° |
| 2026-04-21 21:35 | 36.64059 | -81.88306 | 38273 ft | 398 kts | 252° |
| 2026-04-21 21:36 | 36.61667 | -81.95050 | 38272 ft | 398 kts | 252° |
| 2026-04-21 21:36 | 36.59287 | -82.01753 | 38270 ft | 397 kts | 252° |
| 2026-04-21 21:37 | 36.56918 | -82.08411 | 38265 ft | 397 kts | 252° |
| 2026-04-21 21:37 | 36.54574 | -82.14979 | 38265 ft | 397 kts | 252° |
| 2026-04-21 21:38 | 36.52261 | -82.21449 | 38265 ft | 397 kts | 252° |
| 2026-04-21 21:38 | 36.49936 | -82.27941 | 38265 ft | 397 kts | 252° |
| 2026-04-21 21:39 | 36.47597 | -82.34456 | 38265 ft | 396 kts | 252° |
| 2026-04-21 21:39 | 36.45242 | -82.41004 | 38265 ft | 396 kts | 252° |
| 2026-04-21 21:40 | 36.42865 | -82.47597 | 38265 ft | 396 kts | 252° |
| 2026-04-21 21:40 | 36.40482 | -82.54194 | 38265 ft | 397 kts | 252° |
| 2026-04-21 21:41 | 36.38139 | -82.60667 | 38265 ft | 398 kts | 252° |
| 2026-04-21 21:41 | 36.35788 | -82.67148 | 38264 ft | 398 kts | 251° |
| 2026-04-21 21:42 | 36.33447 | -82.73591 | 38264 ft | 398 kts | 251° |
| 2026-04-21 21:42 | 36.31059 | -82.80145 | 38265 ft | 397 kts | 251° |
| 2026-04-21 21:43 | 36.28658 | -82.86721 | 38267 ft | 397 kts | 251° |
| 2026-04-21 21:43 | 36.26299 | -82.93174 | 38269 ft | 398 kts | 251° |
| 2026-04-21 21:44 | 36.23919 | -82.99663 | 38272 ft | 397 kts | 251° |
| 2026-04-21 21:44 | 36.21569 | -83.06061 | 38274 ft | 397 kts | 251° |
| 2026-04-21 21:45 | 36.19135 | -83.12666 | 38274 ft | 396 kts | 251° |
| 2026-04-21 21:45 | 36.16722 | -83.19215 | 38274 ft | 396 kts | 251° |
| 2026-04-21 21:46 | 36.14303 | -83.25758 | 38274 ft | 397 kts | 251° |
| 2026-04-21 21:46 | 36.11884 | -83.32287 | 38274 ft | 396 kts | 251° |
| 2026-04-21 21:47 | 36.09475 | -83.38777 | 38274 ft | 396 kts | 251° |
| 2026-04-21 21:47 | 36.07070 | -83.45245 | 38274 ft | 395 kts | 251° |
| 2026-04-21 21:48 | 36.04658 | -83.51719 | 38274 ft | 396 kts | 251° |
| 2026-04-21 21:48 | 36.02221 | -83.58242 | 38274 ft | 396 kts | 251° |
| 2026-04-21 21:49 | 35.99810 | -83.64685 | 38274 ft | 396 kts | 251° |
| 2026-04-21 21:49 | 35.97387 | -83.71146 | 38272 ft | 396 kts | 250° |
| 2026-04-21 21:50 | 35.94956 | -83.77612 | 38271 ft | 396 kts | 250° |
| 2026-04-21 21:50 | 35.92524 | -83.84068 | 38270 ft | 396 kts | 250° |
| 2026-04-21 21:51 | 35.90080 | -83.90540 | 38269 ft | 396 kts | 250° |
| 2026-04-21 21:51 | 35.87610 | -83.96893 | 38267 ft | 396 kts | 250° |
| 2026-04-21 21:52 | 35.85131 | -84.03262 | 38264 ft | 396 kts | 250° |
| 2026-04-21 21:52 | 35.82606 | -84.09737 | 38261 ft | 397 kts | 250° |
| 2026-04-21 21:53 | 35.80116 | -84.16116 | 38259 ft | 397 kts | 250° |
| 2026-04-21 21:53 | 35.77614 | -84.22509 | 38256 ft | 396 kts | 250° |
| 2026-04-21 21:54 | 35.75111 | -84.28894 | 38256 ft | 396 kts | 250° |
| 2026-04-21 21:54 | 35.72665 | -84.35120 | 38256 ft | 396 kts | 250° |
| 2026-04-21 21:55 | 35.70218 | -84.41341 | 38256 ft | 395 kts | 250° |
| 2026-04-21 21:55 | 35.67755 | -84.47587 | 38256 ft | 395 kts | 250° |
| 2026-04-21 21:56 | 35.65305 | -84.53790 | 38255 ft | 395 kts | 249° |
| 2026-04-21 21:56 | 35.62865 | -84.59960 | 38256 ft | 396 kts | 249° |
| 2026-04-21 21:56 | 35.61634 | -84.63061 | 38096 ft | 392 kts | 249° |
| 2026-04-21 21:57 | 35.60426 | -84.66100 | 37588 ft | 388 kts | 249° |
| 2026-04-21 21:57 | 35.59230 | -84.69115 | 37027 ft | 385 kts | 249° |
| 2026-04-21 21:57 | 35.58030 | -84.72141 | 36440 ft | 386 kts | 249° |
| 2026-04-21 21:57 | 35.56821 | -84.75190 | 35814 ft | 393 kts | 249° |
| 2026-04-21 21:58 | 35.55613 | -84.78231 | 35252 ft | 392 kts | 249° |
| 2026-04-21 21:58 | 35.54387 | -84.81293 | 34768 ft | 386 kts | 248° |
| 2026-04-21 21:58 | 35.53185 | -84.84286 | 34286 ft | 380 kts | 249° |
| 2026-04-21 21:58 | 35.52016 | -84.87212 | 33814 ft | 376 kts | 249° |
| 2026-04-21 21:59 | 35.50843 | -84.90160 | 33341 ft | 380 kts | 249° |
| 2026-04-21 21:59 | 35.49653 | -84.93151 | 32851 ft | 378 kts | 248° |
| 2026-04-21 21:59 | 35.48467 | -84.96108 | 32369 ft | 372 kts | 248° |
| 2026-04-21 21:59 | 35.47271 | -84.99075 | 31884 ft | 367 kts | 248° |
| 2026-04-21 22:00 | 35.46118 | -85.01942 | 31418 ft | 371 kts | 248° |
| 2026-04-21 22:00 | 35.44951 | -85.04863 | 30932 ft | 372 kts | 248° |
| 2026-04-21 22:00 | 35.43795 | -85.07748 | 30453 ft | 366 kts | 248° |
| 2026-04-21 22:00 | 35.42654 | -85.10580 | 29982 ft | 361 kts | 248° |
| 2026-04-21 22:01 | 35.41524 | -85.13379 | 29520 ft | 362 kts | 248° |
| 2026-04-21 22:01 | 35.40367 | -85.16258 | 29039 ft | 364 kts | 248° |
| 2026-04-21 22:01 | 35.39237 | -85.19067 | 28565 ft | 359 kts | 248° |
| 2026-04-21 22:01 | 35.38102 | -85.21873 | 28094 ft | 354 kts | 247° |
| 2026-04-21 22:02 | 35.36971 | -85.24662 | 27628 ft | 352 kts | 247° |
| 2026-04-21 22:02 | 35.35820 | -85.27511 | 27152 ft | 357 kts | 247° |
| 2026-04-21 22:02 | 35.34663 | -85.30373 | 26665 ft | 352 kts | 247° |
| 2026-04-21 22:02 | 35.33523 | -85.33184 | 26191 ft | 347 kts | 247° |
| 2026-04-21 22:03 | 35.32410 | -85.35928 | 25728 ft | 342 kts | 247° |
| 2026-04-21 22:03 | 35.31311 | -85.38641 | 25275 ft | 345 kts | 247° |
| 2026-04-21 22:03 | 35.30215 | -85.41351 | 24812 ft | 345 kts | 247° |
| 2026-04-21 22:03 | 35.29135 | -85.44005 | 24360 ft | 341 kts | 247° |
| 2026-04-21 22:04 | 35.28051 | -85.46665 | 23907 ft | 336 kts | 247° |
| 2026-04-21 22:04 | 35.26957 | -85.49353 | 23452 ft | 334 kts | 247° |
| 2026-04-21 22:04 | 35.25895 | -85.51966 | 23009 ft | 338 kts | 247° |
| 2026-04-21 22:04 | 35.24805 | -85.54641 | 22548 ft | 334 kts | 246° |
| 2026-04-21 22:05 | 35.23745 | -85.57236 | 22104 ft | 329 kts | 246° |
| 2026-04-21 22:05 | 35.22704 | -85.59782 | 21668 ft | 324 kts | 246° |
| 2026-04-21 22:05 | 35.21684 | -85.62281 | 21245 ft | 325 kts | 246° |
| 2026-04-21 22:05 | 35.20640 | -85.64839 | 20804 ft | 327 kts | 246° |
| 2026-04-21 22:06 | 35.19605 | -85.67364 | 20366 ft | 322 kts | 245° |
| 2026-04-21 22:06 | 35.18579 | -85.69865 | 19936 ft | 318 kts | 245° |
| 2026-04-21 22:06 | 35.17582 | -85.72299 | 19516 ft | 314 kts | 245° |
| 2026-04-21 22:06 | 35.16607 | -85.74680 | 19110 ft | 317 kts | 245° |
| 2026-04-21 22:07 | 35.15608 | -85.77115 | 18685 ft | 316 kts | 245° |
| 2026-04-21 22:07 | 35.14619 | -85.79518 | 18312 ft | 309 kts | 245° |
| 2026-04-21 22:07 | 35.13668 | -85.81828 | 18200 ft | 300 kts | 245° |
| 2026-04-21 22:07 | 35.12725 | -85.84125 | 17578 ft | 305 kts | 245° |
| 2026-04-21 22:08 | 35.11763 | -85.86470 | 17085 ft | 306 kts | 245° |
| 2026-04-21 22:08 | 35.10776 | -85.88865 | 16657 ft | 308 kts | 245° |
| 2026-04-21 22:08 | 35.09796 | -85.91238 | 16239 ft | 304 kts | 245° |
| 2026-04-21 22:08 | 35.08828 | -85.93584 | 15832 ft | 299 kts | 245° |
| 2026-04-21 22:09 | 35.07864 | -85.95920 | 15426 ft | 296 kts | 245° |
| 2026-04-21 22:09 | 35.06906 | -85.98241 | 15028 ft | 302 kts | 245° |
| 2026-04-21 22:09 | 35.05947 | -86.00559 | 14618 ft | 298 kts | 244° |
| 2026-04-21 22:09 | 35.04998 | -86.02855 | 14218 ft | 294 kts | 244° |
| 2026-04-21 22:10 | 35.04052 | -86.05140 | 13819 ft | 289 kts | 244° |
| 2026-04-21 22:10 | 35.03107 | -86.07422 | 13425 ft | 291 kts | 244° |
| 2026-04-21 22:10 | 35.02170 | -86.09682 | 13024 ft | 291 kts | 244° |
| 2026-04-21 22:10 | 35.01226 | -86.11957 | 12624 ft | 287 kts | 244° |
| 2026-04-21 22:11 | 35.00269 | -86.14262 | 12221 ft | 283 kts | 244° |
| 2026-04-21 22:11 | 34.99339 | -86.16502 | 11832 ft | 288 kts | 244° |
| 2026-04-21 22:11 | 34.98584 | -86.18824 | 11477 ft | 282 kts | 259° |
| 2026-04-21 22:11 | 34.98412 | -86.21205 | 11239 ft | 273 kts | 267° |
| 2026-04-21 22:12 | 34.98302 | -86.23568 | 10820 ft | 271 kts | 266° |
| 2026-04-21 22:12 | 34.98177 | -86.25915 | 10424 ft | 269 kts | 266° |
| 2026-04-21 22:12 | 34.98058 | -86.28236 | 10022 ft | 267 kts | 266° |
| 2026-04-21 22:12 | 34.97945 | -86.30524 | 9621 ft | 266 kts | 266° |
| 2026-04-21 22:13 | 34.97831 | -86.32876 | 9206 ft | 264 kts | 266° |
| 2026-04-21 22:13 | 34.97721 | -86.35238 | 8790 ft | 262 kts | 266° |
| 2026-04-21 22:13 | 34.97613 | -86.37616 | 8356 ft | 262 kts | 266° |
| 2026-04-21 22:13 | 34.97513 | -86.39925 | 7946 ft | 260 kts | 266° |
| 2026-04-21 22:14 | 34.97414 | -86.42280 | 7513 ft | 260 kts | 266° |
| 2026-04-21 22:14 | 34.97319 | -86.44605 | 7100 ft | 258 kts | 266° |
| 2026-04-21 22:14 | 34.97228 | -86.46935 | 6679 ft | 257 kts | 266° |
| 2026-04-21 22:14 | 34.97140 | -86.49262 | 6258 ft | 257 kts | 266° |
| 2026-04-21 22:15 | 34.97056 | -86.51583 | 5839 ft | 256 kts | 266° |
| 2026-04-21 22:15 | 34.96976 | -86.53867 | 5437 ft | 255 kts | 266° |
| 2026-04-21 22:15 | 34.96898 | -86.56174 | 5033 ft | 253 kts | 266° |
| 2026-04-21 22:15 | 34.96822 | -86.58446 | 4637 ft | 252 kts | 266° |
| 2026-04-21 22:16 | 34.96748 | -86.60711 | 4228 ft | 251 kts | 266° |
| 2026-04-21 22:16 | 34.96672 | -86.62947 | 4023 ft | 244 kts | 266° |
| 2026-04-21 22:16 | 34.96601 | -86.65125 | 4013 ft | 232 kts | 266° |
| 2026-04-21 22:16 | 34.96539 | -86.67136 | 4034 ft | 216 kts | 266° |
| 2026-04-21 22:17 | 34.96481 | -86.69089 | 4014 ft | 217 kts | 266° |
| 2026-04-21 22:17 | 34.96309 | -86.71024 | 4008 ft | 216 kts | 250° |
| 2026-04-21 22:17 | 34.95398 | -86.72596 | 4049 ft | 206 kts | 224° |
| 2026-04-21 22:17 | 34.94328 | -86.73906 | 4015 ft | 205 kts | 226° |
| 2026-04-21 22:18 | 34.93256 | -86.75223 | 4013 ft | 205 kts | 219° |
| 2026-04-21 22:18 | 34.91965 | -86.76165 | 4022 ft | 205 kts | 206° |
| 2026-04-21 22:18 | 34.90593 | -86.76986 | 4015 ft | 204 kts | 203° |
| 2026-04-21 22:18 | 34.89202 | -86.77371 | 4020 ft | 187 kts | 189° |
| 2026-04-21 22:19 | 34.87825 | -86.77566 | 4017 ft | 186 kts | 187° |
| 2026-04-21 22:19 | 34.86462 | -86.77724 | 4017 ft | 185 kts | 186° |
| 2026-04-21 22:19 | 34.85104 | -86.77801 | 4016 ft | 186 kts | 183° |
| 2026-04-21 22:19 | 34.83717 | -86.77840 | 4030 ft | 184 kts | 183° |
| 2026-04-21 22:20 | 34.82355 | -86.77870 | 4007 ft | 185 kts | 182° |
| 2026-04-21 22:20 | 34.80966 | -86.77899 | 3952 ft | 186 kts | 182° |
| 2026-04-21 22:20 | 34.79598 | -86.77926 | 3603 ft | 184 kts | 182° |
| 2026-04-21 22:20 | 34.78310 | -86.77950 | 3250 ft | 158 kts | 183° |
| 2026-04-21 22:21 | 34.77193 | -86.77974 | 2913 ft | 147 kts | 183° |
| 2026-04-21 22:21 | 34.76156 | -86.77994 | 2709 ft | 138 kts | 183° |
| 2026-04-21 22:21 | 34.75087 | -86.78016 | 2736 ft | 145 kts | 182° |
| 2026-04-21 22:21 | 34.73978 | -86.78038 | 2634 ft | 152 kts | 182° |
| 2026-04-21 22:22 | 34.72823 | -86.78061 | 2229 ft | 158 kts | 182° |
| 2026-04-21 22:22 | 34.71673 | -86.78082 | 1849 ft | 157 kts | 181° |
| 2026-04-21 22:22 | 34.70526 | -86.78106 | 1642 ft | 149 kts | 181° |
| 2026-04-21 22:22 | 34.69444 | -86.78127 | 1538 ft | 146 kts | 181° |
| 2026-04-21 22:23 | 34.68367 | -86.78148 | 1317 ft | 151 kts | 181° |
| 2026-04-21 22:23 | 34.67279 | -86.78155 | 1099 ft | 149 kts | 180° |
| 2026-04-21 22:23 | 34.66184 | -86.78174 | 853 ft | 148 kts | 182° |
| 2026-04-21 22:23 | 34.65111 | -86.78206 | 658 ft | 138 kts | 182° |
| 2026-04-21 22:24 | 34.64259 | -86.78225 | 627 ft | 88 kts | 181° |
| 2026-04-21 22:24 | 34.63784 | -86.78239 | 624 ft | 41 kts | 183° |
| 2026-04-21 22:24 | 34.63549 | -86.78243 | 619 ft | 23 kts | 172° |
| 2026-04-21 22:24 | 34.63464 | -86.78151 | 619 ft | 13 kts | 88° |
| 2026-04-21 22:25 | 34.63467 | -86.78048 | 620 ft | 10 kts | 85° |
| 2026-04-21 22:25 | 34.63536 | -86.77996 | 620 ft | 15 kts | 360° |
| 2026-04-21 22:25 | 34.63664 | -86.77994 | 623 ft | 18 kts | 2° |
| 2026-04-21 22:25 | 34.63797 | -86.77991 | 625 ft | 17 kts | 360° |
| 2026-04-21 22:26 | 34.63935 | -86.77988 | 626 ft | 21 kts | 2° |
| 2026-04-21 22:26 | 34.64082 | -86.77984 | 626 ft | 18 kts | 1° |
| 2026-04-21 22:26 | 34.64213 | -86.77981 | 626 ft | 16 kts | 1° |
| 2026-04-21 22:26 | 34.64355 | -86.77979 | 626 ft | 19 kts | 1° |
| 2026-04-21 22:27 | 34.64485 | -86.77975 | 626 ft | 18 kts | 360° |
| 2026-04-21 22:27 | 34.64583 | -86.77930 | 625 ft | 13 kts | 76° |
| 2026-04-21 22:27 | 34.64584 | -86.77802 | 622 ft | 14 kts | 89° |
| 2026-04-21 22:27 | 34.64640 | -86.77711 | 620 ft | 12 kts | 34° |
| 2026-04-21 22:28 | 34.64682 | -86.77623 | 619 ft | 11 kts | 87° |
| 2026-04-21 22:28 | 34.64682 | -86.77572 | 618 ft | 1 kts | 91° |
| 2026-04-21 22:28 | 34.64682 | -86.77571 | 618 ft | 0 kts | 91° |